createdAt,value
2023-05-16T00:01:19.596Z,84.50
2023-05-16T00:03:49.815Z,85.14
2023-05-16T00:06:18.140Z,85.52
2023-05-16T00:08:47.298Z,85.46
2023-05-16T00:11:15.178Z,86.64
2023-05-16T00:13:43.053Z,86.06
2023-05-16T00:16:11.632Z,85.96
2023-05-16T00:18:39.564Z,86.17
2023-05-16T00:21:07.687Z,86.24
2023-05-16T00:23:35.695Z,86.88
2023-05-16T00:26:05.078Z,86.42
2023-05-16T00:28:32.989Z,85.68
2023-05-16T00:31:01.197Z,85.81
2023-05-16T00:33:29.089Z,85.98
2023-05-16T00:35:56.888Z,85.45
2023-05-16T00:38:26.202Z,84.93
2023-05-16T00:40:53.932Z,85.13
2023-05-16T00:43:23.170Z,85.39
2023-05-16T00:45:51.833Z,85.50
2023-05-16T00:48:20.491Z,85.34
2023-05-16T00:50:49.225Z,85.09
2023-05-16T00:53:17.060Z,86.20
2023-05-16T00:55:48.130Z,86.29
2023-05-16T00:58:16.303Z,85.66
2023-05-16T01:00:48.797Z,87.46
2023-05-16T01:03:17.170Z,86.02
2023-05-16T01:05:45.329Z,85.19
2023-05-16T01:08:13.941Z,84.91
2023-05-16T01:11:02.107Z,85.07
2023-05-16T01:13:37.958Z,85.23
2023-05-16T01:16:14.521Z,86.63
2023-05-16T01:18:47.151Z,87.52
2023-05-16T01:21:23.632Z,87.35
2023-05-16T01:24:00.967Z,88.11
2023-05-16T01:26:32.659Z,88.78
2023-05-16T01:29:03.823Z,88.69
2023-05-16T01:31:31.985Z,87.76
2023-05-16T01:34:00.193Z,87.29
2023-05-16T01:36:37.367Z,87.31
2023-05-16T01:39:12.746Z,87.22
2023-05-16T01:41:49.393Z,86.95
2023-05-16T01:44:26.294Z,86.49
2023-05-16T01:46:57.769Z,86.55
2023-05-16T01:49:35.240Z,86.45
2023-05-16T01:52:09.028Z,86.31
2023-05-16T01:54:40.561Z,86.15
2023-05-16T01:57:10.947Z,85.87
2023-05-16T01:59:40.096Z,86.14
2023-05-16T02:02:11.553Z,86.26
2023-05-16T02:04:39.423Z,85.80
2023-05-16T02:07:09.737Z,85.56
2023-05-16T02:09:38.716Z,86.19
2023-05-16T02:12:10.158Z,86.22
2023-05-16T02:14:38.210Z,86.28
2023-05-16T02:17:06.150Z,86.58
2023-05-16T02:19:34.158Z,86.15
2023-05-16T02:22:04.085Z,85.58
2023-05-16T02:24:34.220Z,86.28
2023-05-16T02:27:02.406Z,86.24
2023-05-16T02:29:31.987Z,86.24
2023-05-16T02:32:00.060Z,85.86
2023-05-16T02:34:28.473Z,86.22
2023-05-16T02:36:56.296Z,86.83
2023-05-16T02:39:24.152Z,86.39
2023-05-16T02:41:52.405Z,86.00
2023-05-16T02:44:20.249Z,86.25
2023-05-16T02:46:49.551Z,86.25
2023-05-16T02:49:17.645Z,87.36
2023-05-16T02:51:46.090Z,88.24
2023-05-16T02:54:14.466Z,87.30
2023-05-16T02:56:42.291Z,88.23
2023-05-16T02:59:10.193Z,88.19
2023-05-16T03:01:39.763Z,87.42
2023-05-16T03:04:11.329Z,87.04
2023-05-16T03:06:39.537Z,86.42
2023-05-16T03:09:08.957Z,86.29
2023-05-16T03:11:39.093Z,86.79
2023-05-16T03:14:06.839Z,86.65
2023-05-16T03:16:34.688Z,87.21
2023-05-16T03:19:02.495Z,87.01
2023-05-16T03:21:31.818Z,86.87
2023-05-16T03:23:59.748Z,86.07
2023-05-16T03:26:27.668Z,86.24
2023-05-16T03:28:55.539Z,86.88
2023-05-16T03:31:23.469Z,87.38
2023-05-16T03:33:51.356Z,87.46
2023-05-16T03:36:19.227Z,86.84
2023-05-16T03:38:48.859Z,88.03
2023-05-16T03:41:17.093Z,88.96
2023-05-16T03:43:44.929Z,88.33
2023-05-16T03:46:12.731Z,87.42
2023-05-16T03:48:40.634Z,88.89
2023-05-16T03:51:08.522Z,88.95
2023-05-16T03:53:36.428Z,90.11
2023-05-16T03:56:06.211Z,89.45
2023-05-16T03:58:34.075Z,89.54
2023-05-16T04:01:01.969Z,90.61
2023-05-16T04:03:30.261Z,90.05
2023-05-16T04:05:58.764Z,89.91
2023-05-16T04:08:28.813Z,89.53
2023-05-16T04:10:56.701Z,90.31
2023-05-16T04:13:26.198Z,89.70
2023-05-16T04:15:54.156Z,89.10
2023-05-16T04:18:22.110Z,88.50
2023-05-16T04:20:50.521Z,88.92
2023-05-16T04:23:18.437Z,88.12
2023-05-16T04:25:46.329Z,88.72
2023-05-16T04:28:14.165Z,88.67
2023-05-16T04:30:43.365Z,88.81
2023-05-16T04:33:11.222Z,88.30
2023-05-16T04:35:39.874Z,88.30
2023-05-16T04:38:07.710Z,87.76
2023-05-16T04:40:36.091Z,87.36
2023-05-16T04:43:04.037Z,87.50
2023-05-16T04:45:31.871Z,87.86
2023-05-16T04:48:01.860Z,87.96
2023-05-16T04:50:31.921Z,87.77
2023-05-16T04:52:59.785Z,88.09
2023-05-16T04:55:27.926Z,88.35
2023-05-16T04:57:56.183Z,89.04
2023-05-16T05:00:24.423Z,88.28
2023-05-16T05:02:52.258Z,88.31
2023-05-16T05:05:22.215Z,89.24
2023-05-16T05:07:50.093Z,90.18
2023-05-16T05:10:18.267Z,89.72
2023-05-16T05:12:46.124Z,89.69
2023-05-16T05:15:14.317Z,90.07
2023-05-16T05:17:42.352Z,90.17
2023-05-16T05:20:11.628Z,90.04
2023-05-16T05:22:41.264Z,89.73
2023-05-16T05:25:09.867Z,91.31
2023-05-16T05:27:37.893Z,91.80
2023-05-16T05:30:06.906Z,92.04
2023-05-16T05:32:35.256Z,90.27
2023-05-16T05:35:03.871Z,90.91
2023-05-16T05:37:31.860Z,90.36
2023-05-16T05:40:01.239Z,89.98
2023-05-16T05:42:29.056Z,89.31
2023-05-16T05:44:56.938Z,90.35
2023-05-16T05:47:24.899Z,90.11
2023-05-16T05:49:52.969Z,89.28
2023-05-16T05:52:20.831Z,91.36
2023-05-16T05:54:49.010Z,90.50
2023-05-16T05:57:18.193Z,90.58
2023-05-16T05:59:46.102Z,89.88
2023-05-16T06:02:15.114Z,88.31
2023-05-16T06:04:43.333Z,87.46
2023-05-16T06:07:11.116Z,87.68
2023-05-16T06:09:39.091Z,86.12
2023-05-16T06:12:07.553Z,86.38
2023-05-16T06:14:36.749Z,88.25
2023-05-16T06:17:04.673Z,86.82
2023-05-16T06:19:32.722Z,86.89
2023-05-16T06:22:00.567Z,86.61
2023-05-16T06:24:29.836Z,86.58
2023-05-16T06:26:58.053Z,84.32
2023-05-16T06:29:26.008Z,86.50
2023-05-16T06:31:55.215Z,86.56
2023-05-16T06:34:27.567Z,85.24
2023-05-16T06:36:55.612Z,85.08
2023-05-16T06:39:23.530Z,84.25
2023-05-16T06:41:51.879Z,85.33
2023-05-16T06:44:24.365Z,86.84
2023-05-16T06:46:52.526Z,86.82
2023-05-16T06:49:21.842Z,84.53
2023-05-16T06:51:49.720Z,84.39
2023-05-16T06:54:17.627Z,85.36
2023-05-16T06:56:46.708Z,86.88
2023-05-16T06:59:14.543Z,87.04
2023-05-16T07:01:42.847Z,87.20
2023-05-16T07:04:11.041Z,85.72
2023-05-16T07:06:40.494Z,84.69
2023-05-16T07:09:08.470Z,86.77
2023-05-16T07:11:37.028Z,86.27
2023-05-16T07:14:04.904Z,86.15
2023-05-16T07:16:32.934Z,85.26
2023-05-16T07:19:01.001Z,86.19
2023-05-16T07:21:29.300Z,87.04
2023-05-16T07:24:00.583Z,86.80
2023-05-16T07:26:30.932Z,86.68
2023-05-16T07:28:58.810Z,83.32
2023-05-16T07:31:26.645Z,84.96
2023-05-16T07:33:54.688Z,84.18
2023-05-16T07:36:22.569Z,82.67
2023-05-16T07:38:50.503Z,82.08
2023-05-16T07:41:19.691Z,81.91
2023-05-16T07:43:47.539Z,82.31
2023-05-16T07:46:15.577Z,82.68
2023-05-16T07:48:46.434Z,81.12
2023-05-16T07:51:14.379Z,82.76
2023-05-16T07:53:42.258Z,80.89
2023-05-16T07:56:10.336Z,79.70
2023-05-16T07:58:40.022Z,80.50
2023-05-16T08:01:08.134Z,80.59
2023-05-16T08:03:36.611Z,81.83
2023-05-16T08:06:04.910Z,81.84
2023-05-16T08:08:32.875Z,80.81
2023-05-16T08:11:02.882Z,81.28
2023-05-16T08:13:31.736Z,81.05
2023-05-16T08:16:01.077Z,80.18
2023-05-16T08:18:28.916Z,80.80
2023-05-16T08:20:56.772Z,81.22
2023-05-16T08:23:24.677Z,80.61
2023-05-16T08:25:54.658Z,83.20
2023-05-16T08:28:22.595Z,83.84
2023-05-16T08:30:50.436Z,83.83
2023-05-16T08:33:19.796Z,84.82
2023-05-16T08:35:49.469Z,84.88
2023-05-16T08:38:17.343Z,83.75
2023-05-16T08:40:45.435Z,85.09
2023-05-16T08:43:13.688Z,85.49
2023-05-16T08:45:41.857Z,85.25
2023-05-16T08:48:12.008Z,85.48
2023-05-16T08:50:44.020Z,86.05
2023-05-16T08:53:14.220Z,85.58
2023-05-16T08:55:43.602Z,85.31
2023-05-16T08:58:14.757Z,86.11
2023-05-16T09:00:45.408Z,85.74
2023-05-16T09:03:15.787Z,87.32
2023-05-16T09:05:45.185Z,84.88
2023-05-16T09:08:13.017Z,85.12
2023-05-16T09:10:40.813Z,85.28
2023-05-16T09:13:08.708Z,85.64
2023-05-16T09:15:36.553Z,85.40
2023-05-16T09:18:05.304Z,87.93
2023-05-16T09:20:33.343Z,88.21
2023-05-16T09:23:03.289Z,86.63
2023-05-16T09:25:32.590Z,86.43
2023-05-16T09:28:03.746Z,86.43
2023-05-16T09:30:33.584Z,87.26
2023-05-16T09:33:01.911Z,87.03
2023-05-16T09:38:02.004Z,84.68
2023-05-16T09:40:29.800Z,83.11
2023-05-16T09:43:04.782Z,82.98
2023-05-16T09:45:34.060Z,81.37
2023-05-16T09:48:06.970Z,83.04
2023-05-16T09:50:35.353Z,84.23
2023-05-16T09:53:07.273Z,84.64
2023-05-16T09:55:35.259Z,84.02
2023-05-16T09:58:03.107Z,85.17
2023-05-16T10:00:32.216Z,84.03
2023-05-16T10:03:05.682Z,84.43
2023-05-16T10:05:34.741Z,82.09
2023-05-16T10:08:04.138Z,81.22
2023-05-16T10:10:38.760Z,80.88
2023-05-16T10:13:08.904Z,81.85
2023-05-16T10:15:39.124Z,81.21
2023-05-16T10:18:12.054Z,79.68
2023-05-16T10:20:42.544Z,80.14
2023-05-16T10:23:16.500Z,80.46
2023-05-16T10:25:47.370Z,79.18
2023-05-16T10:28:16.383Z,79.37
2023-05-16T10:30:46.397Z,80.43
2023-05-16T10:33:15.470Z,79.84
2023-05-16T10:35:43.911Z,80.29
2023-05-16T10:38:13.914Z,79.57
2023-05-16T10:40:46.353Z,79.72
2023-05-16T10:43:24.596Z,81.48
2023-05-16T10:45:57.183Z,82.39
2023-05-16T10:48:33.024Z,82.68
2023-05-16T10:51:02.836Z,82.73
2023-05-16T10:53:32.962Z,83.87
2023-05-16T10:56:12.698Z,86.10
2023-05-16T10:58:44.878Z,85.30
2023-05-16T11:01:46.993Z,86.95
2023-05-16T11:04:16.829Z,85.45
2023-05-16T11:06:47.349Z,87.76
2023-05-16T11:09:27.488Z,88.38
2023-05-16T11:11:59.867Z,89.72
2023-05-16T11:14:32.113Z,91.13
2023-05-16T11:17:05.154Z,91.82
2023-05-16T11:19:35.792Z,92.75
2023-05-16T11:22:10.543Z,92.03
2023-05-16T11:24:40.224Z,92.46
2023-05-16T11:27:13.662Z,92.53
2023-05-16T11:29:42.989Z,93.80
2023-05-16T11:32:10.864Z,93.71
2023-05-16T11:34:39.697Z,91.84
2023-05-16T11:37:08.006Z,92.40
2023-05-16T11:39:36.223Z,92.51
2023-05-16T11:42:04.154Z,93.22
2023-05-16T11:44:33.544Z,92.80
2023-05-16T11:47:02.842Z,91.38
2023-05-16T11:49:31.164Z,90.49
2023-05-16T11:51:59.184Z,89.42
2023-05-16T11:54:27.505Z,90.72
2023-05-16T11:56:58.116Z,89.35
2023-05-16T11:59:33.068Z,89.22
2023-05-16T12:02:04.898Z,88.48
2023-05-16T12:04:32.958Z,86.56
2023-05-16T12:07:02.945Z,86.71
2023-05-16T12:09:30.864Z,86.44
2023-05-16T12:12:01.036Z,85.37
2023-05-16T12:14:29.092Z,85.00
2023-05-16T12:17:00.185Z,84.30
2023-05-16T12:19:32.024Z,83.64
2023-05-16T12:22:03.976Z,81.88
2023-05-16T12:24:32.359Z,81.78
2023-05-16T12:27:00.251Z,81.82
2023-05-16T12:29:32.646Z,81.29
2023-05-16T12:32:01.591Z,81.40
2023-05-16T12:34:31.758Z,80.87
2023-05-16T12:37:02.052Z,80.94
2023-05-16T12:39:38.500Z,80.13
2023-05-16T12:42:07.479Z,80.57
2023-05-16T12:44:35.553Z,80.76
2023-05-16T12:47:13.753Z,81.64
2023-05-16T12:49:47.665Z,81.72
2023-05-16T12:52:20.560Z,82.59
2023-05-16T12:54:48.784Z,82.58
2023-05-16T12:57:16.646Z,82.32
2023-05-16T12:59:44.562Z,82.67
2023-05-16T13:02:12.461Z,82.51
2023-05-16T13:04:40.543Z,81.07
2023-05-16T13:07:09.790Z,80.65
2023-05-16T13:09:37.773Z,81.42
2023-05-16T13:12:06.139Z,80.76
2023-05-16T13:14:34.064Z,80.52
2023-05-16T13:17:02.062Z,80.95
2023-05-16T13:19:32.181Z,80.17
2023-05-16T13:22:00.133Z,79.71
2023-05-16T13:24:29.358Z,80.10
2023-05-16T13:26:58.115Z,79.71
2023-05-16T13:29:28.276Z,79.47
2023-05-16T13:31:56.289Z,80.56
2023-05-16T13:34:25.123Z,79.38
2023-05-16T13:36:54.457Z,78.29
2023-05-16T13:39:23.576Z,78.96
2023-05-16T13:41:53.373Z,79.36
2023-05-16T13:44:22.622Z,78.44
2023-05-16T13:46:51.073Z,78.08
2023-05-16T13:49:19.334Z,79.61
2023-05-16T13:51:47.919Z,79.38
2023-05-16T13:54:15.846Z,79.04
2023-05-16T13:56:44.787Z,78.38
2023-05-16T13:59:20.549Z,78.18
2023-05-16T14:01:51.972Z,78.18
2023-05-16T14:04:19.899Z,78.85
2023-05-16T14:06:47.770Z,78.80
2023-05-16T14:09:16.027Z,77.36
2023-05-16T14:11:43.875Z,77.29
2023-05-16T14:14:11.762Z,77.42
2023-05-16T14:16:45.147Z,78.19
2023-05-16T14:19:15.316Z,77.47
2023-05-16T14:21:44.934Z,78.07
2023-05-16T14:24:12.928Z,77.41
2023-05-16T14:26:41.276Z,76.61
2023-05-16T14:29:09.146Z,76.08
2023-05-16T14:31:37.735Z,75.20
2023-05-16T14:34:07.046Z,75.01
2023-05-16T14:36:35.216Z,74.49
2023-05-16T14:39:03.068Z,74.67
2023-05-16T14:41:30.957Z,73.98
2023-05-16T14:43:58.747Z,72.18
2023-05-16T14:46:26.793Z,72.24
2023-05-16T14:48:54.583Z,71.75
2023-05-16T14:51:23.750Z,71.32
2023-05-16T14:53:51.607Z,69.81
2023-05-16T14:56:19.402Z,69.19
2023-05-16T14:58:47.274Z,69.17
2023-05-16T15:01:16.660Z,68.42
2023-05-16T15:03:54.627Z,68.29
2023-05-16T15:06:25.184Z,67.29
2023-05-16T15:08:53.174Z,68.01
2023-05-16T15:11:21.614Z,66.56
2023-05-16T15:13:52.016Z,66.19
2023-05-16T15:16:19.991Z,67.15
2023-05-16T15:18:47.958Z,66.92
2023-05-16T15:21:15.986Z,67.28
2023-05-16T15:23:47.586Z,67.63
2023-05-16T15:26:15.706Z,66.94
2023-05-16T15:28:43.595Z,65.48
2023-05-16T15:31:11.376Z,65.98
2023-05-16T15:33:39.249Z,65.60
2023-05-16T15:36:08.045Z,65.52
2023-05-16T15:38:36.509Z,65.67
2023-05-16T15:43:41.979Z,66.60
2023-05-16T15:46:10.492Z,66.88
2023-05-16T15:48:42.643Z,65.60
2023-05-16T15:51:10.668Z,65.64
2023-05-16T15:53:38.491Z,66.44
2023-05-16T15:56:09.201Z,66.59
2023-05-16T15:58:40.023Z,66.70
2023-05-16T16:01:08.062Z,65.92
2023-05-16T16:03:36.117Z,66.26
2023-05-16T16:06:04.213Z,65.46
2023-05-16T16:08:32.084Z,64.54
2023-05-16T16:10:59.939Z,65.38
2023-05-16T16:13:29.214Z,65.20
2023-05-16T16:15:57.053Z,65.35
2023-05-16T16:18:24.936Z,64.97
2023-05-16T16:20:54.082Z,63.55
2023-05-16T16:23:22.138Z,63.98
2023-05-16T16:25:50.268Z,64.31
2023-05-16T16:28:18.793Z,65.05
2023-05-16T16:30:50.370Z,64.94
2023-05-16T16:33:18.387Z,62.45
2023-05-16T16:35:48.435Z,61.85
2023-05-16T16:38:16.412Z,61.72
2023-05-16T16:40:46.604Z,61.43
2023-05-16T16:43:15.550Z,61.53
2023-05-16T16:45:43.313Z,61.77
2023-05-16T16:48:12.623Z,61.53
2023-05-16T16:50:40.894Z,60.60
2023-05-16T16:53:08.860Z,61.03
2023-05-16T16:55:40.015Z,61.50
2023-05-16T16:58:08.655Z,60.70
2023-05-16T17:00:36.606Z,60.85
2023-05-16T17:03:05.487Z,60.04
2023-05-16T17:05:34.869Z,60.51
2023-05-16T17:08:02.666Z,59.95
2023-05-16T17:10:30.540Z,60.31
2023-05-16T17:13:07.128Z,60.60
2023-05-16T17:15:35.612Z,60.64
2023-05-16T17:18:05.090Z,60.32
2023-05-16T17:20:34.402Z,60.68
2023-05-16T17:23:02.611Z,60.05
2023-05-16T17:25:31.088Z,59.13
2023-05-16T17:28:02.668Z,59.29
2023-05-16T17:30:31.046Z,58.81
2023-05-16T17:32:58.990Z,58.72
2023-05-16T17:35:26.982Z,58.23
2023-05-16T17:37:56.662Z,57.79
2023-05-16T17:40:24.628Z,57.03
2023-05-16T17:42:54.822Z,57.31
2023-05-16T17:45:23.312Z,58.06
2023-05-16T17:47:51.179Z,57.74
2023-05-16T17:50:19.830Z,57.52
2023-05-16T17:52:47.621Z,57.17
2023-05-16T17:55:16.888Z,56.34
2023-05-16T17:57:45.318Z,55.72
2023-05-16T18:00:15.254Z,55.95
2023-05-16T18:02:43.191Z,56.27
2023-05-16T18:05:12.160Z,56.10
2023-05-16T18:07:42.292Z,56.36
2023-05-16T18:10:11.396Z,57.13
2023-05-16T18:12:41.884Z,55.89
2023-05-16T18:15:11.827Z,55.29
2023-05-16T18:17:39.966Z,55.54
2023-05-16T18:20:10.887Z,54.75
2023-05-16T18:22:39.826Z,54.72
2023-05-16T18:25:09.870Z,53.97
2023-05-16T18:27:38.648Z,54.15
2023-05-16T18:30:10.820Z,53.49
2023-05-16T18:32:39.072Z,53.63
2023-05-16T18:35:08.065Z,53.74
2023-05-16T18:37:36.629Z,53.64
2023-05-16T18:40:05.305Z,54.20
2023-05-16T18:42:33.310Z,54.09
2023-05-16T18:45:01.225Z,53.51
2023-05-16T18:47:30.854Z,53.89
2023-05-16T18:50:04.766Z,53.74
2023-05-16T18:52:35.441Z,53.63
2023-05-16T18:55:03.717Z,54.16
2023-05-16T18:57:31.965Z,53.62
2023-05-16T18:59:59.800Z,54.08
2023-05-16T19:02:40.985Z,53.81
2023-05-16T19:05:11.561Z,53.29
2023-05-16T19:07:39.584Z,54.00
2023-05-16T19:10:09.132Z,53.95
2023-05-16T19:12:37.164Z,53.94
2023-05-16T19:15:06.409Z,55.07
2023-05-16T19:17:34.200Z,54.35
2023-05-16T19:20:03.097Z,54.53
2023-05-16T19:22:32.447Z,54.30
2023-05-16T19:25:00.336Z,54.82
2023-05-16T19:27:28.916Z,54.32
2023-05-16T19:29:56.798Z,54.63
2023-05-16T19:32:24.744Z,54.02
2023-05-16T19:34:52.744Z,54.25
2023-05-16T19:37:20.770Z,53.73
2023-05-16T19:39:50.061Z,53.97
2023-05-16T19:42:17.907Z,54.23
2023-05-16T19:44:45.939Z,55.09
2023-05-16T19:47:13.881Z,54.88
2023-05-16T19:49:41.762Z,54.73
2023-05-16T19:52:09.980Z,55.15
2023-05-16T19:54:37.777Z,55.38
2023-05-16T19:57:07.475Z,55.01
2023-05-16T19:59:35.952Z,55.71
2023-05-16T20:02:04.321Z,54.85
2023-05-16T20:04:32.269Z,55.18
2023-05-16T20:07:00.360Z,55.49
2023-05-16T20:09:28.515Z,55.32
2023-05-16T20:11:57.424Z,55.71
2023-05-16T20:14:27.762Z,55.24
2023-05-16T20:16:56.263Z,55.30
2023-05-16T20:19:24.199Z,55.04
2023-05-16T20:21:52.411Z,55.24
2023-05-16T20:24:20.354Z,55.25
2023-05-16T20:26:48.228Z,54.96
2023-05-16T20:29:16.188Z,55.66
2023-05-16T20:31:45.374Z,55.30
2023-05-16T20:34:13.304Z,55.56
2023-05-16T20:36:41.278Z,55.31
2023-05-16T20:39:09.176Z,54.85
2023-05-16T20:41:37.029Z,55.02
2023-05-16T20:44:06.130Z,54.92
2023-05-16T20:46:34.353Z,54.92
2023-05-16T20:49:03.722Z,55.35
2023-05-16T20:51:31.984Z,55.46
2023-05-16T20:53:59.830Z,54.79
2023-05-16T20:56:27.628Z,55.02
2023-05-16T20:58:55.547Z,55.48
2023-05-16T21:01:23.390Z,55.45
2023-05-16T21:03:51.284Z,55.20
2023-05-16T21:06:20.562Z,54.94
2023-05-16T21:08:48.415Z,55.48
2023-05-16T21:11:16.254Z,55.53
2023-05-16T21:13:44.067Z,55.87
2023-05-16T21:16:12.516Z,55.52
2023-05-16T21:18:40.578Z,55.73
2023-05-16T21:21:08.643Z,56.40
2023-05-16T21:23:37.854Z,56.37
2023-05-16T21:26:05.809Z,56.69
2023-05-16T21:28:39.527Z,56.76
2023-05-16T21:31:12.764Z,56.92
2023-05-16T21:33:40.766Z,56.26
2023-05-16T21:36:08.991Z,56.34
2023-05-16T21:38:38.138Z,56.53
2023-05-16T21:41:06.304Z,55.94
2023-05-16T21:43:34.084Z,56.54
2023-05-16T21:46:01.917Z,56.28
2023-05-16T21:48:29.814Z,56.99
2023-05-16T21:50:57.887Z,57.09
2023-05-16T21:53:28.273Z,57.26
2023-05-16T21:55:57.602Z,57.35
2023-05-16T21:58:25.542Z,56.84
2023-05-16T22:00:53.825Z,57.37
2023-05-16T22:03:24.422Z,57.24
2023-05-16T22:05:52.398Z,57.50
2023-05-16T22:08:23.247Z,57.73
2023-05-16T22:10:52.424Z,57.82
2023-05-16T22:13:21.698Z,57.64
2023-05-16T22:16:03.473Z,58.38
2023-05-16T22:18:33.133Z,58.65
2023-05-16T22:21:01.600Z,58.43
2023-05-16T22:23:29.517Z,58.65
2023-05-16T22:25:57.359Z,58.99
2023-05-16T22:28:26.699Z,58.86
2023-05-16T22:30:56.876Z,58.92
2023-05-16T22:33:25.532Z,58.74
2023-05-16T22:35:53.874Z,58.88
2023-05-16T22:38:21.776Z,59.20
2023-05-16T22:40:51.898Z,58.85
2023-05-16T22:43:19.743Z,59.20
2023-05-16T22:45:52.063Z,59.67
2023-05-16T22:48:19.966Z,59.55
2023-05-16T22:50:47.969Z,59.89
2023-05-16T22:53:18.926Z,59.53
2023-05-16T22:55:46.775Z,59.71
2023-05-16T22:58:14.668Z,60.25
2023-05-16T23:00:42.536Z,60.23
2023-05-16T23:03:11.896Z,59.94
2023-05-16T23:05:39.921Z,59.96
2023-05-16T23:08:07.850Z,60.49
2023-05-16T23:10:36.572Z,60.34
2023-05-16T23:13:04.478Z,60.51
2023-05-16T23:15:34.748Z,60.76
2023-05-16T23:18:02.626Z,60.76
2023-05-16T23:20:32.002Z,61.14
2023-05-16T23:22:59.962Z,61.30
2023-05-16T23:25:28.001Z,61.37
2023-05-16T23:27:57.589Z,61.41
2023-05-16T23:30:25.587Z,61.50
2023-05-16T23:32:53.557Z,62.17
2023-05-16T23:35:21.599Z,62.10
2023-05-16T23:37:50.824Z,62.22
2023-05-16T23:40:20.866Z,61.96
2023-05-16T23:42:48.729Z,62.82
2023-05-16T23:45:16.677Z,62.60
2023-05-16T23:47:46.761Z,62.98
2023-05-16T23:50:15.578Z,63.03
2023-05-16T23:52:43.449Z,63.40
2023-05-16T23:55:12.717Z,63.36
2023-05-16T23:57:43.663Z,63.41
